Starry Sky — 9V3062 — position and weather

sailwx.info

Track history (hours):
 
Tides and Currents Weather Stations Pressure Air Temp Water Temp Dewpoint Dewpoint Depression Visibility Wind Speed Wind Dir Waves Ship Positions

Starry Sky

Last reported at 2017-Dec-04 09:52 UTC. Time now 2017-Dec-11 21:18 UTC.
Position N 34°03' E 131°44'.

Length 190 m; draft 10.8 m.

Type: Cargo ship. MMSI: 565801000.

Date/timePositionNaut miles runAvg speedWind from/ knotsBaromVisibWave heightAir tempDewpointWater temp
2017-Dec-04 09:52N 34°03' E 131°44'0 0.0
2017-Dec-04 09:21N 34°03' E 131°44'0 0.0
2017-Dec-04 08:57N 34°03' E 131°44'0 0.0
2017-Dec-04 08:22N 34°03' E 131°44'0 0.0
2017-Dec-04 07:51N 34°03' E 131°44'0 0.0
2017-Dec-04 07:27N 34°03' E 131°44'0 0.0
2017-Dec-04 06:57N 34°03' E 131°44'0 0.0
2017-Dec-04 03:51N 34°03' E 131°44'0 0.0
2017-Dec-04 03:27N 34°03' E 131°44'0 0.0
2017-Dec-04 02:57N 34°03' E 131°44'0 0.0
2017-Dec-04 02:30N 34°03' E 131°44'0 0.6
2017-Dec-04 02:00N 34°03' E 131°44'3 6.3
2017-Dec-04 01:29N 34°02' E 131°41'4 8.2
2017-Dec-04 01:00N 33°58' E 131°43'2 1.4
2017-Dec-03 23:43N 34°00' E 131°44'0 0.0
2017-Dec-03 18:25N 34°00' E 131°44'0 0.1
2017-Dec-03 15:07N 33°60' E 131°44'0 0.1
2017-Dec-03 14:07N 33°60' E 131°44'0 0.0
2017-Dec-03 13:55N 33°60' E 131°44'0 0.0
2017-Dec-03 09:49N 34°00' E 131°44'0 0.0
2017-Dec-03 07:49N 34°00' E 131°44'0 0.0
2017-Dec-03 07:19N 34°00' E 131°44'0 0.0
2017-Dec-03 05:07N 34°00' E 131°44'0 0.0
2017-Dec-03 02:01N 34°00' E 131°44'0 0.0
2017-Dec-03 00:19N 33°60' E 131°44'0 0.1
2017-Dec-02 23:43N 33°60' E 131°44'0 0.0
2017-Dec-02 23:29N 33°60' E 131°44'1 1.3
2017-Dec-02 23:00N 33°60' E 131°44'3 5.4
2017-Dec-02 22:30N 33°57' E 131°45'4 7.4
2017-Dec-02 22:00N 33°54' E 131°43'511.0
2017-Dec-02 21:30N 33°48' E 131°42'611.7
2017-Dec-02 21:00N 33°43' E 131°45'713.0
2017-Dec-02 20:30N 33°37' E 131°49'713.1
2017-Dec-02 20:00N 33°31' E 131°53'713.0
2017-Dec-02 19:30N 33°26' E 131°56'713.3
2017-Dec-02 19:00N 33°19' E 131°59'510.3
2017-Dec-02 18:29N 33°15' E 132°03'5 7.4
2017-Dec-02 17:51N 33°11' E 132°06'  
Track history (hours):
 
Tides and Currents Weather Stations Pressure Air Temp Water Temp Dewpoint Dewpoint Depression Visibility Wind Speed Wind Dir Waves Ship Positions

Starry Sky

Last reported at 2017-Dec-04 09:52 UTC. Time now 2017-Dec-11 21:18 UTC.
Position N 34°03' E 131°44'.

Length 190 m; draft 10.8 m.

Type: Cargo ship. MMSI: 565801000.

Date/timePositionNaut miles runAvg speedWind from/ knotsBaromVisibWave heightAir tempDewpointWater temp
2017-Dec-04 09:52N 34°03' E 131°44'0 0.0
2017-Dec-04 09:21N 34°03' E 131°44'0 0.0
2017-Dec-04 08:57N 34°03' E 131°44'0 0.0
2017-Dec-04 08:22N 34°03' E 131°44'0 0.0
2017-Dec-04 07:51N 34°03' E 131°44'0 0.0
2017-Dec-04 07:27N 34°03' E 131°44'0 0.0
2017-Dec-04 06:57N 34°03' E 131°44'0 0.0
2017-Dec-04 03:51N 34°03' E 131°44'0 0.0
2017-Dec-04 03:27N 34°03' E 131°44'0 0.0
2017-Dec-04 02:57N 34°03' E 131°44'0 0.0
2017-Dec-04 02:30N 34°03' E 131°44'0 0.6
2017-Dec-04 02:00N 34°03' E 131°44'3 6.3
2017-Dec-04 01:29N 34°02' E 131°41'4 8.2
2017-Dec-04 01:00N 33°58' E 131°43'2 1.4
2017-Dec-03 23:43N 34°00' E 131°44'0 0.0
2017-Dec-03 18:25N 34°00' E 131°44'0 0.1
2017-Dec-03 15:07N 33°60' E 131°44'0 0.1
2017-Dec-03 14:07N 33°60' E 131°44'0 0.0
2017-Dec-03 13:55N 33°60' E 131°44'0 0.0
2017-Dec-03 09:49N 34°00' E 131°44'0 0.0
2017-Dec-03 07:49N 34°00' E 131°44'0 0.0
2017-Dec-03 07:19N 34°00' E 131°44'0 0.0
2017-Dec-03 05:07N 34°00' E 131°44'0 0.0
2017-Dec-03 02:01N 34°00' E 131°44'0 0.0
2017-Dec-03 00:19N 33°60' E 131°44'0 0.1
2017-Dec-02 23:43N 33°60' E 131°44'0 0.0
2017-Dec-02 23:29N 33°60' E 131°44'1 1.3
2017-Dec-02 23:00N 33°60' E 131°44'3 5.4
2017-Dec-02 22:30N 33°57' E 131°45'4 7.4
2017-Dec-02 22:00N 33°54' E 131°43'511.0
2017-Dec-02 21:30N 33°48' E 131°42'611.7
2017-Dec-02 21:00N 33°43' E 131°45'713.0
2017-Dec-02 20:30N 33°37' E 131°49'713.1
2017-Dec-02 20:00N 33°31' E 131°53'713.0
2017-Dec-02 19:30N 33°26' E 131°56'713.3
2017-Dec-02 19:00N 33°19' E 131°59'510.3
2017-Dec-02 18:29N 33°15' E 132°03'5 7.4
2017-Dec-02 17:51N 33°11' E 132°06'  

Dump ship's entire track history